createdAt,value
2022-11-14T00:12:57.001Z,6.4
2022-11-14T00:27:25.848Z,6.8
2022-11-14T00:41:53.208Z,6.4
2022-11-14T00:56:16.835Z,5.1
2022-11-14T01:10:44.145Z,5.3
2022-11-14T01:25:11.917Z,5.1
2022-11-14T01:39:40.793Z,5.8
2022-11-14T01:54:10.074Z,5.9
2022-11-14T02:08:39.588Z,6.3
2022-11-14T02:23:09.931Z,6.8
2022-11-14T02:37:37.643Z,6.6
2022-11-14T02:52:08.518Z,6.9
2022-11-14T03:06:36.642Z,6.8
2022-11-14T03:21:04.817Z,6.6
2022-11-14T03:35:33.268Z,6.4
2022-11-14T03:50:01.653Z,6.4
2022-11-14T04:04:29.522Z,5.9
2022-11-14T04:18:57.451Z,5.6
2022-11-14T04:33:24.739Z,5.2
2022-11-14T04:47:52.849Z,5.4
2022-11-14T05:02:22.157Z,5.9
2022-11-14T05:16:48.446Z,5.7
2022-11-14T05:31:17.067Z,5.7
2022-11-14T05:45:45.670Z,5.6
2022-11-14T06:00:14.002Z,5.9
2022-11-14T06:14:43.777Z,6.3
2022-11-14T06:29:12.521Z,6.2
2022-11-14T06:43:41.733Z,6.3
2022-11-14T06:58:09.717Z,6.3
2022-11-14T07:12:37.261Z,6.3
2022-11-14T07:27:05.458Z,6.5
2022-11-14T07:41:35.389Z,6.8
2022-11-14T07:56:03.474Z,7
2022-11-14T08:10:33.712Z,7.1
2022-11-14T08:25:01.891Z,7.2
2022-11-14T08:39:30.007Z,7.2
2022-11-14T08:53:59.344Z,7.1
2022-11-14T09:08:28.377Z,7.1
2022-11-14T09:22:57.509Z,7.2
2022-11-14T09:37:25.911Z,7.1
2022-11-14T09:51:54.333Z,7.3
2022-11-14T10:06:20.638Z,7.4
2022-11-14T10:20:49.097Z,7.5
2022-11-14T10:35:18.444Z,8
2022-11-14T10:49:47.551Z,8
2022-11-14T11:04:16.474Z,8
2022-11-14T11:18:48.554Z,8.3
2022-11-14T11:33:18.910Z,8.8
2022-11-14T11:47:45.662Z,8.9
2022-11-14T12:02:14.208Z,8.8
2022-11-14T12:16:40.361Z,8.6
2022-11-14T12:31:09.045Z,8.8
2022-11-14T12:45:36.937Z,8.6
2022-11-14T13:00:07.229Z,8.7
2022-11-14T13:14:33.495Z,8.7
2022-11-14T13:29:01.456Z,8.5
2022-11-14T13:43:29.826Z,8.2
2022-11-14T13:57:57.415Z,8.1
2022-11-14T14:12:24.485Z,8.2
2022-11-14T14:26:53.991Z,8.2
2022-11-14T14:41:23.099Z,8.3
2022-11-14T14:55:50.615Z,8.3
2022-11-14T15:10:19.366Z,8.4
2022-11-14T15:24:48.534Z,8.5
2022-11-14T15:39:15.532Z,8.6
2022-11-14T15:53:47.984Z,8.7
2022-11-14T16:08:14.839Z,8.8
2022-11-14T16:22:41.964Z,8.8
2022-11-14T16:36:56.838Z,8.9
2022-11-14T16:51:46.951Z,8.9
2022-11-14T17:06:06.632Z,8.9
2022-11-14T17:20:35.001Z,9
2022-11-14T17:35:03.637Z,9
2022-11-14T17:49:32.693Z,9.1
2022-11-14T18:04:05.963Z,9.2
2022-11-14T18:18:32.524Z,9.1
2022-11-14T18:33:01.852Z,9
2022-11-14T18:47:31.032Z,8.9
2022-11-14T19:01:57.767Z,8.6
2022-11-14T19:16:27.843Z,8.3
2022-11-14T19:30:55.734Z,8.1
2022-11-14T19:45:26.390Z,8
2022-11-14T19:59:53.425Z,7.9
2022-11-14T20:14:22.426Z,8.1
2022-11-14T20:28:50.648Z,8
2022-11-14T20:43:18.570Z,8.4
2022-11-14T20:57:47.961Z,8.5
2022-11-14T21:12:16.584Z,8.5
2022-11-14T21:26:46.039Z,8.6
2022-11-14T21:41:14.789Z,8.5
2022-11-14T21:55:43.921Z,8.6
2022-11-14T22:08:41.304Z,9.3
2022-11-14T22:23:13.549Z,9.5
2022-11-14T22:37:36.084Z,9.3
2022-11-14T22:52:03.608Z,9.4
2022-11-14T23:06:31.421Z,9.6
2022-11-14T23:20:59.112Z,9.9
2022-11-14T23:35:26.768Z,9.9
2022-11-14T23:49:54.762Z,10.1
